Time;durP1;ratioP1;P1;durP2;ratioP2;P2;SDS_P1;SDS_P2;PMS_P1;PMS_P2;Temp;Humidity;BMP_temperature;BMP_pressure;BME280_temperature;BME280_humidity;BME280_pressure;Samples;Min_cycle;Max_cycle;Signal;HPM_P1;HPM_P2
2023/09/25 00:01:41;;;;;;;;;;;;;;;27.80;41.92;94782.94;4960987;28;7172;-61
2023/09/25 00:04:07;;;;;;;;;;;;;;;27.79;42.56;94786.22;4966394;28;7103;-61
2023/09/25 00:06:57;;;;;;;;;;;;;;;27.79;42.02;94789.75;4986209;28;7238;-61
2023/09/25 00:09:43;;;;;;;;;;;;;;;27.79;41.67;94791.75;4955619;28;7391;-61
2023/09/25 00:12:41;;;;;;;;;;;;;;;27.79;41.32;94797.28;4970930;28;7248;-61
2023/09/25 00:15:10;;;;;;;;;;;;;;;27.77;41.55;94792.28;5010279;28;7123;-61
2023/09/25 00:17:45;;;;;;;;;;;;;;;27.76;41.59;94788.00;5005321;28;8794;-61
2023/09/25 00:20:14;;;;;;;;;;;;;;;27.72;41.66;94793.06;4974189;28;8719;-61
2023/09/25 00:22:42;;;;;;;;;;;;;;;27.74;42.00;94784.25;4990638;28;7209;-61
2023/09/25 00:25:31;;;;;;;;;;;;;;;27.73;41.87;94782.78;4981612;28;7251;-61
2023/09/25 00:28:08;;;;;;;;;;;;;;;27.75;41.94;94785.75;4968775;28;7309;-61
2023/09/25 00:30:45;;;;;;;;;;;;;;;27.74;42.05;94784.25;4979679;28;7400;-61
2023/09/25 00:33:44;;;;;;;;;;;;;;;27.74;41.43;94784.25;4997981;28;9601;-61
2023/09/25 00:36:11;;;;;;;;;;;;;;;27.71;42.11;94791.56;4960665;28;8761;-61
2023/09/25 00:38:39;;;;;;;;;;;;;;;27.73;42.16;94796.59;4957634;28;8422;-61
2023/09/25 00:41:06;;;;;;;;;;;;;;;27.70;41.81;94790.06;4954214;28;7210;-61
2023/09/25 00:43:33;;;;;;;;;;;;;;;27.70;41.95;94789.31;4942383;28;7306;-61
2023/09/25 00:45:59;;;;;;;;;;;;;;;27.72;41.78;94781.25;4963244;28;7042;-61
2023/09/25 00:48:28;;;;;;;;;;;;;;;27.70;41.95;94787.31;4959808;28;6987;-61
2023/09/25 00:51:00;;;;;;;;;;;;;;;27.68;42.19;94786.31;4958273;28;9500;-61
2023/09/25 00:53:40;;;;;;;;;;;;;;;27.70;41.65;94781.03;5012699;28;7352;-61
2023/09/25 00:56:17;;;;;;;;;;;;;;;27.69;41.96;94790.59;5013668;28;9165;-61
2023/09/25 00:59:12;;;;;;;;;;;;;;;27.71;41.70;94790.84;5011080;28;6997;-61
2023/09/25 01:01:40;;;;;;;;;;;;;;;27.67;42.29;94790.34;4992346;28;7738;-61
2023/09/25 01:04:17;;;;;;;;;;;;;;;27.70;41.79;94794.84;5004877;28;9275;-63
2023/09/25 01:06:52;;;;;;;;;;;;;;;27.70;41.89;94806.66;5001781;28;7224;-63
2023/09/25 01:09:30;;;;;;;;;;;;;;;27.70;42.26;94801.13;4995128;28;7174;-62
2023/09/25 01:12:26;;;;;;;;;;;;;;;27.69;42.06;94799.63;4992999;28;8204;-63
2023/09/25 01:15:13;;;;;;;;;;;;;;;27.68;41.73;94795.38;5020778;28;6994;-62
2023/09/25 01:17:44;;;;;;;;;;;;;;;27.68;41.83;94792.59;4992283;28;7086;-62
2023/09/25 01:20:13;;;;;;;;;;;;;;;27.67;41.85;94802.16;5020101;28;7420;-63
2023/09/25 01:22:46;;;;;;;;;;;;;;;27.66;41.91;94797.91;5016499;28;7234;-62
2023/09/25 01:25:23;;;;;;;;;;;;;;;27.68;41.70;94791.84;5025639;28;9080;-63
2023/09/25 01:27:56;;;;;;;;;;;;;;;27.69;41.67;94785.06;4993982;28;9038;-62
2023/09/25 01:30:23;;;;;;;;;;;;;;;27.70;41.63;94789.31;4989646;28;7033;-62
2023/09/25 01:33:10;;;;;;;;;;;;;;;27.69;41.66;94777.50;4992844;28;9264;-63
2023/09/25 01:35:46;;;;;;;;;;;;;;;27.71;41.86;94780.50;4995240;28;7244;-63
2023/09/25 01:38:52;;;;;;;;;;;;;;;27.71;41.82;94777.75;5012926;28;7241;-63
2023/09/25 01:41:33;;;;;;;;;;;;;;;27.68;41.89;94766.97;5008066;28;9037;-62
2023/09/25 01:44:11;;;;;;;;;;;;;;;27.73;42.11;94771.72;4996536;28;8039;-63
2023/09/25 01:46:57;;;;;;;;;;;;;;;27.74;42.07;94767.66;4991376;28;6987;-62
2023/09/25 01:49:33;;;;;;;;;;;;;;;27.73;41.28;94769.69;4991430;28;9143;-63
2023/09/25 01:52:06;;;;;;;;;;;;;;;27.74;41.75;94768.44;4999549;28;8771;-62
2023/09/25 01:54:33;;;;;;;;;;;;;;;27.74;41.83;94762.91;5024971;28;9168;-63
2023/09/25 01:57:04;;;;;;;;;;;;;;;27.74;41.79;94760.13;5001961;28;7241;-63
2023/09/25 01:59:31;;;;;;;;;;;;;;;27.71;41.82;94757.66;5007528;28;8228;-63
2023/09/25 02:01:58;;;;;;;;;;;;;;;27.72;41.35;94757.13;4993300;28;8811;-63
2023/09/25 02:04:27;;;;;;;;;;;;;;;27.72;41.48;94753.63;5016531;28;7240;-63
2023/09/25 02:06:58;;;;;;;;;;;;;;;27.74;41.81;94753.84;4993929;28;8794;-63
2023/09/25 02:09:26;;;;;;;;;;;;;;;27.73;41.43;94750.34;5006224;28;7264;-63
2023/09/25 02:11:52;;;;;;;;;;;;;;;27.72;41.49;94753.63;5019568;28;9438;-63
2023/09/25 02:14:23;;;;;;;;;;;;;;;27.71;41.34;94749.38;4994908;28;7364;-61
2023/09/25 02:16:49;;;;;;;;;;;;;;;27.74;42.01;94753.84;5056737;28;9291;-61
2023/09/25 02:19:18;;;;;;;;;;;;;;;27.74;41.18;94753.84;5063974;28;8997;-61
2023/09/25 02:21:45;;;;;;;;;;;;;;;27.72;41.60;94745.31;5060196;28;7007;-61
2023/09/25 02:24:13;;;;;;;;;;;;;;;27.69;41.54;94743.63;5044543;28;8614;-61
2023/09/25 02:26:38;;;;;;;;;;;;;;;27.69;41.58;94744.34;5044128;28;7423;-61
2023/09/25 02:29:07;;;;;;;;;;;;;;;27.69;41.53;94744.34;5045695;28;8872;-61
2023/09/25 02:31:33;;;;;;;;;;;;;;;27.70;41.68;94745.09;5043509;28;9426;-61
2023/09/25 02:33:59;;;;;;;;;;;;;;;27.72;41.78;94746.09;5035025;28;8103;-61
2023/09/25 02:36:29;;;;;;;;;;;;;;;27.69;41.58;94744.34;5045262;28;9357;-61
2023/09/25 02:38:56;;;;;;;;;;;;;;;27.67;41.61;94735.06;5048692;28;7244;-61
2023/09/25 02:41:22;;;;;;;;;;;;;;;27.67;41.97;94740.59;5045162;28;8850;-61
2023/09/25 02:43:50;;;;;;;;;;;;;;;27.66;41.54;94742.63;5039055;28;7305;-61
2023/09/25 02:46:16;;;;;;;;;;;;;;;27.67;41.44;94744.13;5044293;28;7196;-61
2023/09/25 02:48:42;;;;;;;;;;;;;;;27.68;41.28;94742.84;5053085;28;7085;-61
2023/09/25 02:51:10;;;;;;;;;;;;;;;27.68;41.69;94753.16;5039818;28;6996;-61
2023/09/25 02:53:38;;;;;;;;;;;;;;;27.62;41.51;94744.94;5046384;28;7188;-61
2023/09/25 02:56:05;;;;;;;;;;;;;;;27.63;41.60;94747.16;5070991;28;7688;-61
2023/09/25 02:58:31;;;;;;;;;;;;;;;27.63;41.56;94760.22;5039549;28;8156;-61
2023/09/25 03:01:01;;;;;;;;;;;;;;;27.63;41.23;94749.94;5057555;28;7045;-61
2023/09/25 03:03:29;;;;;;;;;;;;;;;27.63;41.50;94749.94;5065109;28;7259;-61
2023/09/25 03:06:01;;;;;;;;;;;;;;;27.63;41.96;94749.94;5043305;28;7226;-61
2023/09/25 03:08:32;;;;;;;;;;;;;;;27.63;41.75;94746.41;5061769;28;7054;-61
2023/09/25 03:10:58;;;;;;;;;;;;;;;27.62;41.76;94745.66;5046386;28;8243;-61
2023/09/25 03:13:33;;;;;;;;;;;;;;;27.64;41.47;94739.63;5051483;28;7022;-61
2023/09/25 03:16:02;;;;;;;;;;;;;;;27.64;41.55;94743.13;5041191;28;7251;-61
2023/09/25 03:18:31;;;;;;;;;;;;;;;27.63;41.02;94741.63;5039486;28;7249;-61
2023/09/25 03:21:11;;;;;;;;;;;;;;;27.62;42.03;94736.63;5036627;28;9033;-60
2023/09/25 03:23:40;;;;;;;;;;;;;;;27.60;41.55;94741.91;5042996;28;7445;-61
2023/09/25 03:26:40;;;;;;;;;;;;;;;27.60;41.64;94742.66;5046326;28;7218;-61
2023/09/25 03:29:20;;;;;;;;;;;;;;;27.61;41.59;94740.66;5014224;28;7179;-61
2023/09/25 03:31:57;;;;;;;;;;;;;;;27.58;41.91;94747.19;5003862;28;9129;-61
2023/09/25 03:34:58;;;;;;;;;;;;;;;27.60;41.47;94739.91;5003106;28;7001;-61
2023/09/25 03:37:33;;;;;;;;;;;;;;;27.57;41.82;94738.19;4975066;28;7143;-61
2023/09/25 03:40:00;;;;;;;;;;;;;;;27.59;41.87;94746.72;4973318;28;9215;-61
2023/09/25 03:42:26;;;;;;;;;;;;;;;27.55;41.91;94746.25;4976646;28;7444;-61
2023/09/25 03:45:30;;;;;;;;;;;;;;;27.59;41.86;94745.94;4973427;28;9272;-61
2023/09/25 03:48:22;;;;;;;;;;;;;;;27.60;41.50;94742.66;4915711;29;7269;-61
2023/09/25 03:50:59;;;;;;;;;;;;;;;27.57;41.60;94740.19;4915422;29;7278;-61
2023/09/25 03:53:27;;;;;;;;;;;;;;;27.58;41.82;94745.19;4915541;29;9262;-61
2023/09/25 03:56:04;;;;;;;;;;;;;;;27.58;41.84;94736.91;4917647;29;9127;-61
2023/09/25 03:58:40;;;;;;;;;;;;;;;27.60;41.54;94748.19;4908983;29;9658;-61
2023/09/25 04:01:29;;;;;;;;;;;;;;;27.57;41.38;94748.47;4895063;29;7258;-61
2023/09/25 04:03:55;;;;;;;;;;;;;;;27.57;41.96;94745.72;4907899;29;6856;-61
2023/09/25 04:06:31;;;;;;;;;;;;;;;27.54;41.71;94744.72;4892615;29;7148;-61
2023/09/25 04:09:13;;;;;;;;;;;;;;;27.54;41.77;94749.50;4871865;29;7812;-61
2023/09/25 04:11:44;;;;;;;;;;;;;;;27.54;41.46;94750.25;4885549;29;7333;-61
2023/09/25 04:14:19;;;;;;;;;;;;;;;27.55;41.53;94757.28;4953627;28;6993;-61
2023/09/25 04:16:46;;;;;;;;;;;;;;;27.55;41.60;94770.34;4977597;28;7261;-61
2023/09/25 04:19:44;;;;;;;;;;;;;;;27.52;41.54;94772.13;4981071;28;7238;-61
2023/09/25 04:22:11;;;;;;;;;;;;;;;27.50;42.24;94771.91;4936677;28;7288;-60
2023/09/25 04:24:37;;;;;;;;;;;;;;;27.50;41.95;94769.13;4992397;28;9784;-61
2023/09/25 04:27:04;;;;;;;;;;;;;;;27.53;41.89;94770.84;4977295;28;8786;-61
2023/09/25 04:29:32;;;;;;;;;;;;;;;27.52;41.99;94774.88;4981466;28;7248;-61
2023/09/25 04:31:58;;;;;;;;;;;;;;;27.50;41.44;94771.91;4982325;28;9238;-60
2023/09/25 04:34:25;;;;;;;;;;;;;;;27.49;41.83;94778.66;4972909;28;9096;-60
2023/09/25 04:36:58;;;;;;;;;;;;;;;27.47;42.24;94772.91;4972959;28;7372;-61
2023/09/25 04:39:24;;;;;;;;;;;;;;;27.50;41.69;94779.44;4973129;28;8344;-60
2023/09/25 04:41:50;;;;;;;;;;;;;;;27.47;41.85;94778.44;4981364;28;7342;-61
2023/09/25 04:44:16;;;;;;;;;;;;;;;27.47;41.75;94774.94;4972651;28;10430;-61
2023/09/25 04:46:45;;;;;;;;;;;;;;;27.48;42.03;94777.19;4980613;28;7054;-60
2023/09/25 04:49:23;;;;;;;;;;;;;;;27.44;41.77;94768.44;4976058;28;8738;-61
2023/09/25 04:51:49;;;;;;;;;;;;;;;27.51;41.93;94780.94;4973711;28;9052;-60
2023/09/25 04:54:16;;;;;;;;;;;;;;;27.51;42.08;94780.94;4988018;28;7113;-61
2023/09/25 04:56:43;;;;;;;;;;;;;;;27.45;41.84;94771.91;4995026;28;7358;-61
2023/09/25 04:59:09;;;;;;;;;;;;;;;27.47;41.80;94770.16;5066545;28;7235;-61
2023/09/25 05:01:36;;;;;;;;;;;;;;;27.47;41.83;94772.91;5065502;28;8040;-61
2023/09/25 05:04:06;;;;;;;;;;;;;;;27.44;42.41;94776.72;5049592;28;7334;-60
2023/09/25 05:06:32;;;;;;;;;;;;;;;27.47;42.02;94780.47;5045893;28;7455;-61
2023/09/25 05:09:00;;;;;;;;;;;;;;;27.44;41.72;94768.44;5049164;28;7214;-60
2023/09/25 05:11:26;;;;;;;;;;;;;;;27.44;42.73;94779.47;5040322;28;7364;-61
2023/09/25 05:13:54;;;;;;;;;;;;;;;27.45;42.71;94780.97;5041232;28;9278;-60
2023/09/25 05:16:25;;;;;;;;;;;;;;;27.47;42.10;94781.19;5040508;28;7190;-60
2023/09/25 05:18:52;;;;;;;;;;;;;;;27.47;41.94;94780.47;5054294;28;9134;-61
2023/09/25 05:21:29;;;;;;;;;;;;;;;27.47;41.89;94783.22;5041598;28;7196;-60
2023/09/25 05:23:57;;;;;;;;;;;;;;;27.42;42.06;94768.19;5045974;28;7604;-60
2023/09/25 05:26:25;;;;;;;;;;;;;;;27.46;42.34;94776.94;5049518;28;9138;-61
2023/09/25 05:28:55;;;;;;;;;;;;;;;27.47;42.03;94783.22;5065914;28;7142;-60
2023/09/25 05:31:23;;;;;;;;;;;;;;;27.42;42.19;94782.00;5049161;28;6962;-61
2023/09/25 05:33:54;;;;;;;;;;;;;;;27.45;43.66;94780.97;5049725;28;7237;-61
2023/09/25 05:36:22;;;;;;;;;;;;;;;27.47;42.48;94789.50;5043972;28;7142;-61
2023/09/25 05:38:49;;;;;;;;;;;;;;;27.41;42.53;94780.50;5046853;28;7397;-61
2023/09/25 05:41:18;;;;;;;;;;;;;;;27.43;42.58;94783.50;5061243;28;7336;-60
2023/09/25 05:43:53;;;;;;;;;;;;;;;27.39;42.46;94771.97;5069013;28;7475;-61
2023/09/25 05:46:20;;;;;;;;;;;;;;;27.39;42.18;94782.28;5050945;28;7307;-61
2023/09/25 05:48:53;;;;;;;;;;;;;;;27.38;41.95;94791.84;5053192;28;7243;-61
2023/09/25 05:51:26;;;;;;;;;;;;;;;27.36;41.49;94786.81;5060073;28;9456;-60
2023/09/25 05:53:52;;;;;;;;;;;;;;;27.35;41.51;94781.78;5048229;28;8722;-60
2023/09/25 05:56:19;;;;;;;;;;;;;;;27.34;41.31;94789.31;5036946;28;7447;-60
2023/09/25 05:58:49;;;;;;;;;;;;;;;27.35;41.65;94781.78;5065747;28;7752;-60
2023/09/25 06:01:22;;;;;;;;;;;;;;;27.38;41.88;94795.31;5072979;28;7388;-61
2023/09/25 06:03:49;;;;;;;;;;;;;;;27.34;41.47;94796.88;5049447;28;7208;-61
2023/09/25 06:06:35;;;;;;;;;;;;;;;27.33;41.34;94796.09;5041191;28;8263;-61
2023/09/25 06:09:15;;;;;;;;;;;;;;;27.33;41.56;94784.31;5035369;28;7031;-61
2023/09/25 06:11:43;;;;;;;;;;;;;;;27.31;41.35;94793.09;5047623;28;7234;-60
2023/09/25 06:14:12;;;;;;;;;;;;;;;27.30;41.53;94791.59;5046014;28;7239;-60
2023/09/25 06:16:51;;;;;;;;;;;;;;;27.28;40.90;94799.66;5080011;28;7311;-60
2023/09/25 06:19:19;;;;;;;;;;;;;;;27.25;41.23;94795.13;5043219;28;9202;-61
2023/09/25 06:21:45;;;;;;;;;;;;;;;27.24;41.62;94799.16;5041830;28;9481;-61
2023/09/25 06:24:14;;;;;;;;;;;;;;;27.21;42.12;94797.44;5062488;28;9409;-61
2023/09/25 06:26:46;;;;;;;;;;;;;;;27.22;41.62;94793.41;5041177;28;7407;-61
2023/09/25 06:29:13;;;;;;;;;;;;;;;27.19;41.93;94797.19;5041139;28;9394;-61
2023/09/25 06:31:48;;;;;;;;;;;;;;;27.22;41.88;94801.69;5054992;28;6977;-61
2023/09/25 06:34:23;;;;;;;;;;;;;;;27.20;41.95;94793.19;5047095;28;8966;-61
2023/09/25 06:36:50;;;;;;;;;;;;;;;27.23;41.38;94792.13;5054100;28;7268;-61
2023/09/25 06:39:24;;;;;;;;;;;;;;;27.23;41.67;94791.41;5044401;28;7224;-61
2023/09/25 06:42:00;;;;;;;;;;;;;;;27.23;41.89;94794.91;5056215;28;7310;-61
2023/09/25 06:44:26;;;;;;;;;;;;;;;27.21;41.33;94794.66;5053131;28;8852;-61
2023/09/25 06:46:52;;;;;;;;;;;;;;;27.19;41.88;94797.19;5046599;28;8744;-62
2023/09/25 06:49:43;;;;;;;;;;;;;;;27.17;41.58;94805.25;5054291;28;7216;-61
2023/09/25 06:52:13;;;;;;;;;;;;;;;27.15;41.64;94813.28;5044657;28;7175;-61
2023/09/25 06:54:53;;;;;;;;;;;;;;;27.12;41.24;94803.25;5063741;28;7653;-56
2023/09/25 06:57:49;;;;;;;;;;;;;;;27.17;41.36;94804.47;5047129;28;7105;-56
2023/09/25 07:00:35;;;;;;;;;;;;;;;27.17;44.21;94802.47;5042522;28;7567;-57
2023/09/25 07:03:03;;;;;;;;;;;;;;;27.19;41.73;94799.94;5057229;28;7470;-56
2023/09/25 07:05:44;;;;;;;;;;;;;;;27.22;43.57;94807.22;5026696;28;7709;-57
2023/09/25 07:08:30;;;;;;;;;;;;;;;27.22;43.27;94804.47;5042723;28;7250;-56
2023/09/25 07:11:00;;;;;;;;;;;;;;;27.22;43.04;94801.69;5058649;28;7275;-57
2023/09/25 07:13:27;;;;;;;;;;;;;;;27.25;42.74;94816.50;5021917;28;8085;-56
2023/09/25 07:16:15;;;;;;;;;;;;;;;27.26;42.48;94813.22;5025832;28;6997;-56
2023/09/25 07:18:43;;;;;;;;;;;;;;;27.25;42.59;94808.94;5061159;28;7246;-57
2023/09/25 07:21:20;;;;;;;;;;;;;;;27.23;42.22;94802.47;5035134;28;8697;-56
2023/09/25 07:23:46;;;;;;;;;;;;;;;27.25;42.46;94803.41;5026495;28;7448;-57
2023/09/25 07:26:17;;;;;;;;;;;;;;;27.23;42.73;94802.47;5026992;28;8056;-56
2023/09/25 07:28:47;;;;;;;;;;;;;;;27.22;42.19;94807.22;5032646;28;6997;-57
2023/09/25 07:31:37;;;;;;;;;;;;;;;27.21;41.98;94800.19;5034263;28;7279;-57
2023/09/25 07:34:05;;;;;;;;;;;;;;;27.17;42.04;94794.19;5053541;28;7222;-56
2023/09/25 07:37:18;;;;;;;;;;;;;;;27.21;42.21;94793.94;5040686;28;9067;-56
2023/09/25 07:40:11;;;;;;;;;;;;;;;27.18;42.48;94795.72;5010868;28;7206;-56
2023/09/25 07:42:44;;;;;;;;;;;;;;;27.19;42.14;94791.66;5012360;28;7282;-56
2023/09/25 07:45:44;;;;;;;;;;;;;;;27.20;42.02;94798.69;5016456;28;8213;-57
2023/09/25 07:48:12;;;;;;;;;;;;;;;27.21;41.94;94802.22;5014484;28;7016;-57
2023/09/25 07:50:40;;;;;;;;;;;;;;;27.21;42.14;94804.97;5022881;28;7141;-56
2023/09/25 07:53:08;;;;;;;;;;;;;;;27.18;42.44;94795.72;5016540;28;7067;-57
2023/09/25 07:56:08;;;;;;;;;;;;;;;27.24;41.93;94807.47;5024673;28;7503;-57
2023/09/25 07:58:40;;;;;;;;;;;;;;;27.21;41.92;94810.50;5009447;28;7080;-57
2023/09/25 08:01:17;;;;;;;;;;;;;;;27.20;42.13;94795.94;5024378;28;7662;-57
2023/09/25 08:03:43;;;;;;;;;;;;;;;27.21;42.15;94804.97;5027173;28;7321;-57
2023/09/25 08:06:24;;;;;;;;;;;;;;;27.21;41.80;94802.22;5026506;28;8823;-57
2023/09/25 08:08:59;;;;;;;;;;;;;;;27.25;42.18;94806.19;5025849;28;7481;-57
2023/09/25 08:11:28;;;;;;;;;;;;;;;27.25;41.81;94808.94;5011799;28;7207;-57
2023/09/25 08:14:02;;;;;;;;;;;;;;;27.26;41.88;94809.69;5025391;28;9034;-57
2023/09/25 08:16:31;;;;;;;;;;;;;;;27.25;41.81;94797.91;5047954;28;8232;-57
2023/09/25 08:19:12;;;;;;;;;;;;;;;27.28;41.76;94804.41;5039498;28;7228;-57
2023/09/25 08:21:39;;;;;;;;;;;;;;;27.29;42.00;94800.41;5046294;28;7267;-57
2023/09/25 08:24:19;;;;;;;;;;;;;;;27.30;41.62;94801.88;5059691;28;7213;-57
2023/09/25 08:27:08;;;;;;;;;;;;;;;27.30;41.85;94808.16;5060923;28;9792;-57
2023/09/25 08:29:37;;;;;;;;;;;;;;;27.27;41.82;94806.44;5053547;28;7221;-57
2023/09/25 08:32:29;;;;;;;;;;;;;;;27.29;41.84;94814.97;5045795;28;7040;-57
2023/09/25 08:34:58;;;;;;;;;;;;;;;27.29;41.71;94811.44;5056792;28;9139;-57
2023/09/25 08:37:43;;;;;;;;;;;;;;;27.31;42.24;94809.69;5052545;28;8321;-57
2023/09/25 08:40:16;;;;;;;;;;;;;;;27.33;41.81;94814.69;5066956;28;7294;-57
2023/09/25 08:42:52;;;;;;;;;;;;;;;27.33;41.84;94814.69;5047632;28;9413;-57
2023/09/25 08:45:21;;;;;;;;;;;;;;;27.30;41.43;94808.16;5044391;28;8821;-57
2023/09/25 08:48:10;;;;;;;;;;;;;;;27.30;41.92;94805.41;5041677;28;7239;-57
2023/09/25 08:50:39;;;;;;;;;;;;;;;27.32;41.74;94818.69;5043587;28;7204;-57
2023/09/25 08:53:13;;;;;;;;;;;;;;;27.30;41.39;94816.44;5036348;28;9076;-57
2023/09/25 08:55:48;;;;;;;;;;;;;;;27.33;41.43;94812.69;5039238;28;8806;-57
2023/09/25 08:58:30;;;;;;;;;;;;;;;27.33;41.64;94804.41;5035963;28;8125;-56
2023/09/25 09:01:04;;;;;;;;;;;;;;;27.32;42.26;94807.66;5061760;28;7501;-57
2023/09/25 09:03:36;;;;;;;;;;;;;;;27.29;41.61;94809.44;5042318;28;9016;-57
2023/09/25 09:06:04;;;;;;;;;;;;;;;27.30;41.80;94807.41;5059747;28;7268;-57
2023/09/25 09:08:54;;;;;;;;;;;;;;;27.29;41.76;94811.44;5058748;28;7701;-57
2023/09/25 09:11:29;;;;;;;;;;;;;;;27.27;42.08;94806.44;5040559;28;6994;-57
2023/09/25 09:14:34;;;;;;;;;;;;;;;27.28;41.67;94816.22;5072092;28;9072;-57
2023/09/25 09:17:12;;;;;;;;;;;;;;;27.29;41.81;94820.50;4984533;28;8848;-56
2023/09/25 09:19:46;;;;;;;;;;;;;;;27.28;41.68;94820.97;4984385;28;8736;-57
2023/09/25 09:22:30;;;;;;;;;;;;;;;27.27;41.95;94825.03;4998967;28;7452;-57
2023/09/25 09:25:20;;;;;;;;;;;;;;;27.26;41.75;94824.25;4993074;28;8754;-64
2023/09/25 09:28:16;;;;;;;;;;;;;;;27.26;41.44;94818.75;4998822;28;7196;-64
2023/09/25 09:30:43;;;;;;;;;;;;;;;27.27;41.62;94819.50;4992841;28;9107;-64
2023/09/25 09:33:10;;;;;;;;;;;;;;;27.27;41.69;94822.25;5003182;28;6986;-64
2023/09/25 09:35:51;;;;;;;;;;;;;;;27.25;41.62;94820.00;4987997;28;8860;-64
2023/09/25 09:38:21;;;;;;;;;;;;;;;27.25;41.63;94822.75;4991487;28;7161;-64
2023/09/25 09:40:52;;;;;;;;;;;;;;;27.27;41.63;94814.72;4995623;28;9051;-64
2023/09/25 09:43:23;;;;;;;;;;;;;;;27.24;41.66;94824.03;5005423;28;7248;-64
2023/09/25 09:46:24;;;;;;;;;;;;;;;27.26;41.36;94818.75;4992381;28;6974;-64
2023/09/25 09:49:02;;;;;;;;;;;;;;;27.23;41.81;94811.47;4972365;28;7071;-64
2023/09/25 09:51:48;;;;;;;;;;;;;;;27.26;41.53;94804.94;4962444;28;7235;-64
2023/09/25 09:54:21;;;;;;;;;;;;;;;27.28;41.58;94810.69;4992378;28;9262;-64
2023/09/25 09:56:48;;;;;;;;;;;;;;;27.28;41.40;94809.94;4991865;28;7165;-64
2023/09/25 09:59:18;;;;;;;;;;;;;;;27.28;41.24;94807.94;4977531;28;7342;-64
2023/09/25 10:01:50;;;;;;;;;;;;;;;27.30;41.30;94812.94;4996264;28;7235;-64
2023/09/25 10:04:20;;;;;;;;;;;;;;;27.30;41.35;94812.94;4972885;28;7278;-64
2023/09/25 10:07:23;;;;;;;;;;;;;;;27.31;41.13;94809.69;4972675;28;7622;-64
2023/09/25 10:10:07;;;;;;;;;;;;;;;27.34;41.31;94808.63;4934687;29;9286;-64
2023/09/25 10:12:52;;;;;;;;;;;;;;;27.33;41.11;94804.41;4916501;29;9156;-64
2023/09/25 10:15:27;;;;;;;;;;;;;;;27.32;40.86;94805.63;4926742;28;8963;-64
2023/09/25 10:17:54;;;;;;;;;;;;;;;27.32;41.69;94805.63;4904920;29;7349;-64
2023/09/25 10:20:41;;;;;;;;;;;;;;;27.34;41.58;94808.63;4920071;29;8946;-64
2023/09/25 10:23:09;;;;;;;;;;;;;;;27.35;41.12;94814.91;4931307;29;7235;-64
2023/09/25 10:25:57;;;;;;;;;;;;;;;27.35;41.34;94801.91;4958718;28;8803;-64
2023/09/25 10:28:28;;;;;;;;;;;;;;;27.31;40.91;94809.69;4957512;28;7305;-64
2023/09/25 10:31:02;;;;;;;;;;;;;;;27.34;41.41;94811.41;4970575;28;7279;-64
2023/09/25 10:34:05;;;;;;;;;;;;;;;27.34;41.17;94807.91;4957794;28;7131;-61
2023/09/25 10:37:04;;;;;;;;;;;;;;;27.34;41.39;94807.91;4882381;29;9093;-61
2023/09/25 10:39:34;;;;;;;;;;;;;;;27.33;41.20;94807.16;4844987;29;7642;-61
2023/09/25 10:42:11;;;;;;;;;;;;;;;27.34;41.09;94808.63;4834970;29;7438;-61
2023/09/25 10:44:46;;;;;;;;;;;;;;;27.37;41.22;94813.19;4875854;29;8823;-61
2023/09/25 10:47:23;;;;;;;;;;;;;;;27.39;40.94;94818.19;4896730;29;8067;-61
2023/09/25 10:49:59;;;;;;;;;;;;;;;27.37;40.72;94817.94;4891193;29;9779;-61
2023/09/25 10:52:32;;;;;;;;;;;;;;;27.39;40.67;94823.72;4897410;29;7331;-60
2023/09/25 10:55:22;;;;;;;;;;;;;;;27.39;40.71;94824.47;4881984;29;7006;-61
2023/09/25 10:57:50;;;;;;;;;;;;;;;27.37;41.26;94818.69;4880685;29;7841;-61
2023/09/25 11:00:22;;;;;;;;;;;;;;;27.39;40.90;94818.19;4881853;29;7048;-61
2023/09/25 11:02:57;;;;;;;;;;;;;;;27.39;41.00;94827.22;4891829;29;9420;-61
2023/09/25 11:05:25;;;;;;;;;;;;;;;27.40;40.94;94822.47;4882125;29;7407;-61
2023/09/25 11:07:52;;;;;;;;;;;;;;;27.39;41.29;94818.94;4896727;29;7360;-61
2023/09/25 11:10:44;;;;;;;;;;;;;;;27.41;40.81;94821.19;4881373;29;7026;-61
2023/09/25 11:13:22;;;;;;;;;;;;;;;27.44;41.00;94820.94;4940866;28;6861;-61
2023/09/25 11:15:50;;;;;;;;;;;;;;;27.42;40.93;94817.94;4984422;28;7249;-61
2023/09/25 11:18:44;;;;;;;;;;;;;;;27.48;40.92;94815.88;5083025;28;7281;-61
2023/09/25 11:21:12;;;;;;;;;;;;;;;27.50;41.06;94816.09;4969840;28;7084;-61
2023/09/25 11:23:48;;;;;;;;;;;;;;;27.50;40.85;94821.63;4983712;28;8515;-62
2023/09/25 11:26:25;;;;;;;;;;;;;;;27.53;40.75;94820.59;4980979;28;7330;-61
2023/09/25 11:29:12;;;;;;;;;;;;;;;27.52;41.04;94821.09;4979097;28;7069;-61
2023/09/25 11:31:40;;;;;;;;;;;;;;;27.55;41.11;94818.09;4967717;28;6979;-61
2023/09/25 11:34:07;;;;;;;;;;;;;;;27.55;40.84;94822.84;4967045;28;8819;-61
2023/09/25 11:36:45;;;;;;;;;;;;;;;27.55;40.57;94823.59;4975009;28;7444;-61
2023/09/25 11:39:15;;;;;;;;;;;;;;;27.56;41.05;94830.63;4976130;28;9379;-62
2023/09/25 11:41:52;;;;;;;;;;;;;;;27.56;41.10;94825.09;4983525;28;7007;-61
2023/09/25 11:44:18;;;;;;;;;;;;;;;27.57;40.77;94821.09;4963362;28;7396;-61
2023/09/25 11:46:49;;;;;;;;;;;;;;;27.58;40.85;94821.81;4964420;28;7199;-60
2023/09/25 11:49:15;;;;;;;;;;;;;;;27.57;41.04;94826.59;4965208;28;7980;-61
2023/09/25 11:51:41;;;;;;;;;;;;;;;27.57;40.89;94823.84;4968175;28;9560;-61
2023/09/25 11:54:08;;;;;;;;;;;;;;;27.57;40.60;94817.56;4974451;28;9143;-61
2023/09/25 11:56:35;;;;;;;;;;;;;;;27.59;41.13;94818.56;4986194;28;9108;-61
2023/09/25 11:59:11;;;;;;;;;;;;;;;27.58;41.11;94816.28;5035643;28;9054;-61
2023/09/25 12:01:39;;;;;;;;;;;;;;;27.62;40.88;94817.50;5057904;28;7335;-61
2023/09/25 12:04:12;;;;;;;;;;;;;;;27.61;40.83;94813.25;5050439;28;7073;-61
2023/09/25 12:06:46;;;;;;;;;;;;;;;27.65;41.66;94818.50;5052772;28;7766;-61
2023/09/25 12:09:12;;;;;;;;;;;;;;;27.64;41.25;94817.00;5075446;28;7178;-61
2023/09/25 12:11:40;;;;;;;;;;;;;;;27.66;40.93;94813.72;5049209;28;7382;-61
2023/09/25 12:14:10;;;;;;;;;;;;;;;27.69;41.15;94816.19;5044692;28;9062;-61
2023/09/25 12:16:50;;;;;;;;;;;;;;;27.68;41.02;94819.50;5039543;28;8462;-61
2023/09/25 12:19:25;;;;;;;;;;;;;;;27.69;40.87;94818.22;5046194;28;9214;-61
2023/09/25 12:22:03;;;;;;;;;;;;;;;27.70;41.27;94814.94;5051671;28;7052;-61
2023/09/25 12:24:31;;;;;;;;;;;;;;;27.70;41.29;94812.19;5041088;28;7258;-62
2023/09/25 12:27:04;;;;;;;;;;;;;;;27.75;41.49;94808.63;5039300;28;7140;-61
2023/09/25 12:29:33;;;;;;;;;;;;;;;27.78;40.98;94812.34;5042363;28;7274;-61
2023/09/25 12:31:59;;;;;;;;;;;;;;;27.77;40.77;94811.63;5053932;28;8989;-61
2023/09/25 12:34:28;;;;;;;;;;;;;;;27.78;41.71;94809.59;5038666;28;7282;-61
2023/09/25 12:36:55;;;;;;;;;;;;;;;27.82;41.07;94821.16;5051701;28;9109;-61
2023/09/25 12:39:28;;;;;;;;;;;;;;;27.83;41.20;94822.63;5036752;28;7660;-61
2023/09/25 12:41:59;;;;;;;;;;;;;;;27.85;40.54;94815.31;5046056;28;8872;-61
2023/09/25 12:44:26;;;;;;;;;;;;;;;27.85;41.31;94820.09;5048986;28;7340;-61
2023/09/25 12:47:22;;;;;;;;;;;;;;;27.87;41.45;94817.56;5041643;28;8654;-61
2023/09/25 12:49:48;;;;;;;;;;;;;;;27.88;40.96;94816.31;5044759;28;7230;-61
2023/09/25 12:52:16;;;;;;;;;;;;;;;27.87;41.08;94804.50;5043090;28;7498;-61
2023/09/25 12:54:58;;;;;;;;;;;;;;;27.91;41.06;94812.50;5068155;28;9114;-55
2023/09/25 12:57:26;;;;;;;;;;;;;;;27.94;40.68;94815.00;5067817;28;9052;-55
2023/09/25 13:00:19;;;;;;;;;;;;;;;27.95;41.32;94810.94;5048672;28;6991;-55
2023/09/25 13:02:45;;;;;;;;;;;;;;;27.99;40.70;94816.25;5044830;28;8787;-55
2023/09/25 13:05:22;;;;;;;;;;;;;;;28.02;40.66;94810.41;5042893;28;7232;-55
2023/09/25 13:08:04;;;;;;;;;;;;;;;27.99;40.75;94802.41;5034826;28;8862;-56
2023/09/25 13:10:51;;;;;;;;;;;;;;;27.95;40.92;94805.41;5040355;28;7167;-55
2023/09/25 13:13:48;;;;;;;;;;;;;;;27.98;41.11;94809.19;5053102;28;6974;-56
2023/09/25 13:16:16;;;;;;;;;;;;;;;28.01;41.02;94808.19;5041516;28;7250;-55
2023/09/25 13:18:51;;;;;;;;;;;;;;;27.99;41.14;94800.38;5043626;28;7546;-56
2023/09/25 13:21:17;;;;;;;;;;;;;;;28.02;41.07;94793.06;5070877;28;9419;-55
2023/09/25 13:23:47;;;;;;;;;;;;;;;28.04;40.59;94791.28;5066305;28;7162;-56
2023/09/25 13:26:51;;;;;;;;;;;;;;;28.09;40.46;94792.50;5064643;28;9070;-56
2023/09/25 13:29:26;;;;;;;;;;;;;;;28.10;41.08;94794.75;5048557;28;9336;-55
2023/09/25 13:32:00;;;;;;;;;;;;;;;28.09;40.71;94789.75;5035016;28;7325;-55
2023/09/25 13:34:44;;;;;;;;;;;;;;;28.13;40.64;94790.19;5047183;28;7497;-54
2023/09/25 13:37:15;;;;;;;;;;;;;;;28.13;40.37;94785.44;5047013;28;6991;-55